Etusivu
METAR-TAF:

METAR-TAF

Lentoasemat :

Forest City, Iowa, Yhdysvallat

Leveyspiiri: 43-14-05N, Pituuspiiri: 093-37-27W, korkeus merenpinnasta: 375 m

Tämänhetkinen sää

Tämä raportti tehtiin 28 minuuttia sitten, kello 15.35 UTC
Tuuli 10 kn pohjoisesta/koillisesta
Lämpötila -5°C
Kosteus 93%
Ilmanpaine 1026 hPa
Näkyvyys: 16.1 km
Pilvistä 1300 ft:n korkeudessa

METAR: KFXY 011535Z AUTO 03010KT 10SM OVC013 M05/M06 A3031 RMK AO2

Aika: 10:03 (16:03 UTC)


TAF: puuttuu

Säähavainnot ja -ennusteet yli 4000 lentoasemalta (METAR- ja TAF-raportit).

Käytössä olevat sääasemat on merkitty karttaan keltaisilla ja punaisilla pisteillä.

Aseta hiiri pisteen päälle nähdäksesi sääaseman nimen.

Klikkaa sitten nähdäksesi säähavainnot ja -ennusteet.

Kartan vaihtaminen: klikkaa mustalla rastilla varustettuja vihreitä pisteitä, niin voit zoomata sisään; viivalla varustettua vihreää pistettä, niin voit zoomata ulos tai vihreitä nuolia, niin pääset viereisille kartoille.


METAR-TAF: